Terminal Aerodrome Forecast
Issued by NWS Caribou, ME

Home | Current Version | Previous Version | Text Only | Print | Product List | Glossary On
Versions: 1 2 3 4 5 6 7 8 9 10 11 12 13 14
000
FTUS41 KCAR 230901 AAB
TAFCAR
TAF AMD
KCAR 230901Z 2309/2406 07004KT 3/4SM -SN BR OVC010
     FM231500 12010G19KT 1SM -SN OVC008
     FM231700 13012G20KT 1SM -SNPL OVC008
     FM231900 13012G20KT 1/2SM FZRASNPL OVC003
     FM232100 14011G19KT 1SM FZRAPL OVC003
     FM240000 15006KT 3SM -FZRA OVC003
     FM240400 VRB02KT 2SM -FZRASN OVC008=

USA.gov is the U.S. government's official web portal to all federal, state and local government web resources and services.